Date,TemperatureHighF,TemperatureAvgF,TemperatureLowF,DewpointHighF,DewpointAvgF,DewpointLowF,HumidityHigh,HumidityAvg,HumidityLow,PressureMaxIn,PressureMinIn,WindSpeedMaxMPH,WindSpeedAvgMPH,GustSpeedMaxMPH,PrecipitationSumIn
2013-10-1,67.9,58.8,49.9,62.6,54.1,45.6,95,85,79,29.82,29.74,5,0,5,0.02
2013-10-2,78.5,65.5,56.2,59.3,54.7,50.6,94,71,40,29.89,29.75,4,0,4,0.00
2013-10-3,66.4,58.7,57.2,61.6,52.3,49.9,85,79,74,29.87,29.82,2,0,2,0.00
2013-10-4,77.8,72.6,67.3,67.5,65.1,62.1,84,77,67,29.85,29.81,3,0,3,0.00
2013-10-5,72.7,68.3,64.6,68.2,64.8,61.7,95,89,83,29.84,29.66,4,0,4,0.20
2013-10-6,68.9,64.9,56.5,67.0,62.5,54.2,96,92,84,29.66,29.42,6,1,6,0.39
2013-10-7,59.0,51.8,44.8,54.2,46.8,41.5,92,83,68,29.92,29.47,7,1,7,0.00
2013-10-8,68.0,53.4,41.2,51.5,44.1,37.3,92,73,47,30.09,29.92,4,0,4,0.01
2013-10-9,70.4,55.8,44.5,55.9,45.6,39.6,90,70,45,30.12,30.03,5,1,5,0.00
2013-10-10,72.2,57.0,46.1,54.4,45.8,40.6,90,68,41,30.04,29.94,4,0,4,0.10
2013-10-11,73.4,57.0,44.3,55.2,46.8,38.2,87,70,51,29.94,29.88,4,0,4,0.00
2013-10-12,77.8,62.0,50.4,59.9,51.6,45.3,91,70,41,29.90,29.84,5,0,5,0.00
2013-10-13,68.2,60.0,50.2,56.4,47.2,39.9,88,65,39,30.15,29.89,4,1,4,0.00
2013-10-14,64.4,53.9,47.5,46.3,42.8,39.6,81,67,49,30.22,30.07,6,1,6,0.00
2013-10-15,63.0,54.5,44.3,59.2,49.3,38.3,92,83,74,30.08,29.63,4,1,4,0.01
2013-10-16,61.7,56.8,52.4,59.4,50.2,44.6,92,79,59,29.70,29.58,5,1,5,0.00
2013-10-17,52.4,49.8,45.9,48.0,45.4,40.8,90,85,78,29.69,29.52,3,0,3,0.06
2013-10-18,61.7,50.6,40.9,49.7,43.5,37.9,92,78,55,29.69,29.61,4,0,4,0.01
2013-10-19,48.1,44.0,39.8,44.6,39.7,35.8,91,85,77,29.68,29.52,4,0,4,0.10
2013-10-20,58.1,47.7,38.0,45.9,40.6,34.9,91,77,58,29.69,29.57,4,1,4,0.02
2013-10-21,53.6,49.8,40.9,47.3,42.8,34.7,86,77,69,29.64,29.57,5,1,5,0.01
2013-10-22,48.8,41.7,33.1,35.5,31.9,27.5,81,68,52,29.69,29.61,6,1,6,0.00
2013-10-23,47.3,39.8,33.7,35.6,31.2,27.4,87,72,48,29.70,29.55,4,0,4,0.00
2013-10-24,46.4,38.6,33.3,34.0,30.5,28.3,86,73,51,29.96,29.68,3,1,3,0.00
2013-10-25,48.6,39.3,32.9,36.2,31.0,28.1,88,73,53,30.12,29.90,6,1,6,0.00
2013-10-26,49.0,42.8,37.1,39.6,32.4,28.1,85,67,57,29.90,29.56,8,2,8,0.06
2013-10-27,52.2,40.5,33.1,39.6,32.8,28.4,87,75,52,29.84,29.75,5,0,5,0.00
2013-10-28,51.3,41.4,32.0,42.1,33.9,26.3,87,75,68,30.18,29.80,5,1,5,0.00
2013-10-29,51.5,44.3,38.2,40.5,35.5,30.6,77,71,65,30.23,30.02,4,1,4,0.00
2013-10-30,63.7,48.6,36.0,49.2,40.0,30.6,90,73,53,30.02,29.74,6,1,6,0.07
2013-10-31,61.4,58.7,52.9,60.0,56.9,49.4,96,94,88,29.75,28.93,7,2,7,0.66